Map

Track Data

SID SEASON NUMBER BASIN SUBBASIN NAME ISO_TIME NATURE LAT LON WMO_WIND WMO_PRES WMO_AGENCY TRACK_TYPE DIST2LAND LANDFALL IFLAG USA_AGENCY USA_ATCF_ID USA_LAT USA_LON USA_RECORD USA_STATUS USA_WIND USA_PRES USA_SSHS USA_R34_NE USA_R34_SE USA_R34_SW USA_R34_NW USA_R50_NE USA_R50_SE USA_R50_SW USA_R50_NW USA_R64_NE USA_R64_SE USA_R64_SW USA_R64_NW USA_POCI USA_ROCI USA_RMW USA_EYE TOKYO_LAT TOKYO_LON TOKYO_GRADE TOKYO_WIND TOKYO_PRES TOKYO_R50_DIR TOKYO_R50_LONG TOKYO_R50_SHORT TOKYO_R30_DIR TOKYO_R30_LONG TOKYO_R30_SHORT TOKYO_LAND CMA_LAT CMA_LON CMA_CAT CMA_WIND CMA_PRES HKO_LAT HKO_LON HKO_CAT HKO_WIND HKO_PRES NEWDELHI_LAT NEWDELHI_LON NEWDELHI_GRADE NEWDELHI_WIND NEWDELHI_PRES NEWDELHI_CI NEWDELHI_DP NEWDELHI_POCI REUNION_LAT REUNION_LON REUNION_TYPE REUNION_WIND REUNION_PRES REUNION_TNUM REUNION_CI REUNION_RMW REUNION_R34_NE REUNION_R34_SE REUNION_R34_SW REUNION_R34_NW REUNION_R50_NE REUNION_R50_SE REUNION_R50_SW REUNION_R50_NW REUNION_R64_NE REUNION_R64_SE REUNION_R64_SW REUNION_R64_NW BOM_LAT BOM_LON BOM_TYPE BOM_WIND BOM_PRES BOM_TNUM BOM_CI BOM_RMW BOM_R34_NE BOM_R34_SE BOM_R34_SW BOM_R34_NW BOM_R50_NE BOM_R50_SE BOM_R50_SW BOM_R50_NW BOM_R64_NE BOM_R64_SE BOM_R64_SW BOM_R64_NW BOM_ROCI BOM_POCI BOM_EYE BOM_POS_METHOD BOM_PRES_METHOD NADI_LAT NADI_LON NADI_CAT NADI_WIND NADI_PRES WELLINGTON_LAT WELLINGTON_LON WELLINGTON_WIND WELLINGTON_PRES DS824_LAT DS824_LON DS824_STAGE DS824_WIND DS824_PRES TD9636_LAT TD9636_LON TD9636_STAGE TD9636_WIND TD9636_PRES TD9635_LAT TD9635_LON TD9635_WIND TD9635_PRES TD9635_ROCI NEUMANN_LAT NEUMANN_LON NEUMANN_CLASS NEUMANN_WIND NEUMANN_PRES MLC_LAT MLC_LON MLC_CLASS MLC_WIND MLC_PRES USA_GUST BOM_GUST BOM_GUST_PER REUNION_GUST REUNION_GUST_PER USA_SEAHGT USA_SEARAD_NE USA_SEARAD_SE USA_SEARAD_SW USA_SEARAD_NW STORM_SPEED STORM_DIR
1975306N12263 1975 125 EP MM PRISCILLA 1975-11-02 00:00:00 TS 11.5000 -97.0000 25 hurdat_epa main 461 461 O________OO___ hurdat_epa EP161975 11.5000 -97.0000 TD 25 -1 11.5000 -97.0000 TC 25 11.5000 -97.0000 1 25 0 0
1975306N12263 1975 125 EP MM PRISCILLA 1975-11-02 03:00:00 TS 11.4980 -97.0078 main 461 461 P________PP___ EP161975 11.5100 -97.0000 TD 25 -1 11.5100 -97.0000 TC 25 11.4502 -97.0389 1 25 0 0
1975306N12263 1975 125 EP MM PRISCILLA 1975-11-02 06:00:00 TS 11.4841 -97.0125 25 hurdat_epa main 461 461 O________OP___ hurdat_epa EP161975 11.5000 -97.0000 TD 25 -1 11.5000 -97.0000 TC 25 11.4203 -97.0622 1 25 0 205
1975306N12263 1975 125 EP MM PRISCILLA 1975-11-02 09:00:00 TS 11.4620 -97.0109 main 461 461 P________PP___ EP161975 11.4700 -97.0000 TD 25 -1 11.4700 -97.0000 TC 25 11.4302 -97.0545 1 25 0 0
1975306N12263 1975 125 EP MM PRISCILLA 1975-11-02 12:00:00 TS 11.5000 -97.0000 25 hurdat_epa main 461 438 O________OO___ hurdat_epa EP161975 11.5000 -97.0000 TD 25 -1 11.5000 -97.0000 TC 25 11.5000 -97.0000 1 25 2 12
1975306N12263 1975 125 EP MM PRISCILLA 1975-11-02 15:00:00 TS 11.6701 -96.9798 main 438 416 P________PP___ EP161975 11.6775 -97.0000 TD 27 -1 11.6775 -97.0000 TC 27 11.6405 -96.8988 1 26 4 6
1975306N12263 1975 125 EP MM PRISCILLA 1975-11-02 18:00:00 TS 11.8853 -96.9626 30 hurdat_epa main 416 393 O________OP___ hurdat_epa EP161975 11.9000 -97.0000 TD 30 -1 11.9000 -97.0000 TC 30 11.8266 -96.8130 1 27 4 11
1975306N12263 1975 125 EP MM PRISCILLA 1975-11-02 21:00:00 TS 12.0628 -96.8982 main 393 382 P________PP___ EP161975 12.0723 -96.9176 TD 30 -1 12.0723 -96.9176 TC 30 12.0245 -96.8207 1 28 3 354
1975306N12263 1975 125 EP MM PRISCILLA 1975-11-03 00:00:00 TS 12.2000 -97.0000 30 hurdat_epa main 383 377 O________OO___ hurdat_epa EP161975 12.2000 -97.0000 TD 30 -1 12.2000 -97.0000 TC 30 12.2000 -97.0000 1 30 6 290
1975306N12263 1975 125 EP MM PRISCILLA 1975-11-03 03:00:00 TS 12.2663 -97.4565 main 382 382 P________PP___ EP161975 12.2576 -97.4451 TD 30 -1 12.2576 -97.4451 TC 30 12.3012 -97.5020 1 30 11 276
1975306N12263 1975 125 EP MM PRISCILLA 1975-11-03 06:00:00 TS 12.3150 -98.1135 30 hurdat_epa main 403 403 O________OP___ hurdat_epa EP161975 12.3000 -98.1000 TD 30 -1 12.3000 -98.1000 TC 30 12.3748 -98.1674 1 30 14 276
1975306N12263 1975 125 EP MM PRISCILLA 1975-11-03 09:00:00 TS 12.4014 -98.8507 main 420 419 P________PP___ EP161975 12.3929 -98.8449 TD 30 -1 12.3929 -98.8449 TC 30 12.4357 -98.8741 1 30 14 278
1975306N12263 1975 125 EP MM PRISCILLA 1975-11-03 12:00:00 TS 12.5000 -99.5000 30 hurdat_epa main 432 430 O________OO___ hurdat_epa EP161975 12.5000 -99.5000 TD 30 -1 12.5000 -99.5000 TC 30 12.5000 -99.5000 1 30 10 282
1975306N12263 1975 125 EP MM PRISCILLA 1975-11-03 15:00:00 TS 12.5972 -99.8168 main 433 426 P________PP___ EP161975 12.5996 -99.8101 TD 27 -1 12.5996 -99.8101 TC 27 12.5876 -99.8434 1 30 5 291
1975306N12263 1975 125 EP MM PRISCILLA 1975-11-03 18:00:00 TS 12.6967 -100.019 25 hurdat_epa main 430 428 O________OP___ hurdat_epa EP161975 12.7000 -100.000 TD 25 -1 12.7000 -100.000 TC 25 12.6835 -100.095 1 30 5 294
1975306N12263 1975 125 EP MM PRISCILLA 1975-11-03 21:00:00 TS 12.7975 -100.281 main 432 427 P________PP___ EP161975 12.7999 -100.270 TD 27 -1 12.7999 -100.270 TC 27 12.7877 -100.325 1 30 6 290
1975306N12263 1975 125 EP MM PRISCILLA 1975-11-04 00:00:00 TS 12.9000 -100.600 30 hurdat_epa main 436 430 O________OO___ hurdat_epa EP161975 12.9000 -100.600 TD 30 -1 12.9000 -100.600 TC 30 12.9000 -100.600 1 30 7 285
1975306N12263 1975 125 EP MM PRISCILLA 1975-11-04 03:00:00 TS 12.9927 -101.021 main 437 437 P________PP___ EP161975 12.9925 -101.020 TD 32 -1 12.9925 -101.020 TC 32 12.9937 -101.026 1 31 9 283
1975306N12263 1975 125 EP MM PRISCILLA 1975-11-04 06:00:00 TS 13.0996 -101.501 35 hurdat_epa main 447 446 O________OP___ hurdat_epa EP161975 13.1000 -101.500 TS 35 0 13.1000 -101.500 TC 35 13.0979 -101.505 1 32 10 284
1975306N12263 1975 125 EP MM PRISCILLA 1975-11-04 09:00:00 TS 13.2276 -102.008 main 463 458 P________PP___ EP161975 13.2275 -102.008 TS 35 0 13.2275 -102.008 TC 35 13.2281 -102.007 1 33 10 287
1975306N12263 1975 125 EP MM PRISCILLA 1975-11-04 12:00:00 TS 13.4000 -102.500 35 hurdat_epa main 461 452 O________OO___ hurdat_epa EP161975 13.4000 -102.500 TS 35 0 13.4000 -102.500 TC 35 13.4000 -102.500 2 35 10 295
1975306N12263 1975 125 EP MM PRISCILLA 1975-11-04 15:00:00 TS 13.6296 -102.903 main 456 442 P________PP___ EP161975 13.6273 -102.908 TS 35 0 13.6273 -102.908 TC 35 13.6389 -102.887 2 37 9 303
1975306N12263 1975 125 EP MM PRISCILLA 1975-11-04 18:00:00 TS 13.9037 -103.294 35 hurdat_epa main 447 436 O________OP___ hurdat_epa EP161975 13.9000 -103.300 TS 35 0 13.9000 -103.300 TC 35 13.9183 -103.268 2 40 10 306
1975306N12263 1975 125 EP MM PRISCILLA 1975-11-04 21:00:00 TS 14.2025 -103.702 main 440 422 P________PP___ EP161975 14.1997 -103.705 TS 40 0 14.1997 -103.705 TC 40 14.2136 -103.690 2 42 11 304
1975306N12263 1975 125 EP MM PRISCILLA 1975-11-05 00:00:00 TS 14.5000 -104.200 45 hurdat_epa main 426 415 O________OO___ hurdat_epa EP161975 14.5000 -104.200 TS 45 0 14.5000 -104.200 TC 45 14.5000 -104.200 2 45 12 297
1975306N12263 1975 125 EP MM PRISCILLA 1975-11-05 03:00:00 TS 14.7656 -104.848 main 415 415 P________PP___ EP161975 14.7649 -104.848 TS 45 0 14.7649 -104.848 TC 45 14.7682 -104.852 2 45 14 290
1975306N12263 1975 125 EP MM PRISCILLA 1975-11-05 06:00:00 TS 15.0036 -105.599 45 hurdat_epa main 431 431 O________OP___ hurdat_epa EP161975 15.0000 -105.600 TS 45 0 15.0000 -105.600 TC 45 15.0180 -105.594 2 45 16 287
1975306N12263 1975 125 EP MM PRISCILLA 1975-11-05 09:00:00 TS 15.2306 -106.386 main 464 463 P________PP___ EP161975 15.2299 -106.385 TS 45 0 15.2299 -106.385 TC 45 15.2336 -106.390 2 45 16 284
1975306N12263 1975 125 EP MM PRISCILLA 1975-11-05 12:00:00 TS 15.4000 -107.200 45 hurdat_epa main 495 495 O________OO___ hurdat_epa EP161975 15.4000 -107.200 TS 45 0 15.4000 -107.200 TC 45 15.4000 -107.200 2 45 16 279
1975306N12263 1975 125 EP MM PRISCILLA 1975-11-05 15:00:00 TS 15.4738 -108.006 main 535 535 P________PP___ EP161975 15.4723 -108.008 TS 47 0 15.4723 -108.008 TC 47 15.4800 -107.998 2 47 15 274
1975306N12263 1975 125 EP MM PRISCILLA 1975-11-05 18:00:00 TS 15.5030 -108.799 50 hurdat_epa main 593 593 O________OP___ hurdat_epa EP161975 15.5000 -108.800 TS 50 0 15.5000 -108.800 TC 50 15.5151 -108.797 2 50 15 272
1975306N12263 1975 125 EP MM PRISCILLA 1975-11-05 21:00:00 TS 15.5303 -109.567 main 654 654 P________PP___ EP161975 15.5272 -109.565 TS 52 0 15.5272 -109.565 TC 52 15.5426 -109.573 2 52 15 274
1975306N12263 1975 125 EP MM PRISCILLA 1975-11-06 00:00:00 TS 15.6000 -110.300 55 hurdat_epa main 700 700 O________OO___ hurdat_epa EP161975 15.6000 -110.300 TS 55 0 15.6000 -110.300 TC 55 15.6000 -110.300 2 55 14 280
1975306N12263 1975 125 EP MM PRISCILLA 1975-11-06 03:00:00 TS 15.7757 -111.031 main 744 744 P________PP___ EP161975 15.7850 -111.037 TS 55 0 15.7850 -111.037 TC 55 15.7387 -111.007 2 55 14 286
1975306N12263 1975 125 EP MM PRISCILLA 1975-11-06 06:00:00 TS 15.9824 -111.691 55 hurdat_epa main 792 786 O________OP___ hurdat_epa EP161975 16.0000 -111.700 TS 55 0 16.0000 -111.700 TC 55 15.9122 -111.657 2 55 12 288
1975306N12263 1975 125 EP MM PRISCILLA 1975-11-06 09:00:00 TS 16.1468 -112.254 main 797 786 P________PP___ EP161975 16.1573 -112.260 TS 55 0 16.1573 -112.260 TC 55 16.1046 -112.228 2 55 10 288
1975306N12263 1975 125 EP MM PRISCILLA 1975-11-06 12:00:00 TS 16.3000 -112.700 55 hurdat_epa main 790 783 O________OO___ hurdat_epa EP161975 16.3000 -112.700 TS 55 0 16.3000 -112.700 TC 55 16.3000 -112.700 2 55 8 292
1975306N12263 1975 125 EP MM PRISCILLA 1975-11-06 15:00:00 TS 16.4510 -113.048 main 781 780 P________PP___ EP161975 16.4424 -113.045 TS 50 0 16.4424 -113.045 TC 50 16.4858 -113.058 2 52 7 298
1975306N12263 1975 125 EP MM PRISCILLA 1975-11-06 18:00:00 TS 16.6098 -113.304 45 hurdat_epa main 784 774 O________OP___ hurdat_epa EP161975 16.6000 -113.300 TS 45 0 16.6000 -113.300 TC 45 16.6623 -113.323 2 50 6 308
1975306N12263 1975 125 EP MM PRISCILLA 1975-11-06 21:00:00 TS 16.8036 -113.516 main 774 764 P________PP___ EP161975 16.7999 -113.515 TS 45 0 16.7999 -113.515 TC 45 16.8327 -113.527 2 47 5 316
1975306N12263 1975 125 EP MM PRISCILLA 1975-11-07 00:00:00 TS 17.0000 -113.700 45 hurdat_epa main 764 756 O________OO___ hurdat_epa EP161975 17.0000 -113.700 TS 45 0 17.0000 -113.700 TC 45 17.0000 -113.700 2 45 5 315
1975306N12263 1975 125 EP MM PRISCILLA 1975-11-07 03:00:00 TS 17.1650 -113.900 main 756 752 P________P____ EP161975 17.1650 -113.900 TS 40 0 17.1650 -113.900 TC 40 2 5 308
1975306N12263 1975 125 EP MM PRISCILLA 1975-11-07 06:00:00 ET 17.3000 -114.100 35 hurdat_epa main 758 755 O________O____ hurdat_epa EP161975 17.3000 -114.100 ET 35 -4 17.3000 -114.100 35 2 5 302
1975306N12263 1975 125 EP MM PRISCILLA 1975-11-07 09:00:00 ET 17.4075 -114.300 main 761 758 P________P____ EP161975 17.4075 -114.300 ET 30 -4 17.4075 -114.300 30 2 4 298
1975306N12263 1975 125 EP MM PRISCILLA 1975-11-07 12:00:00 ET 17.5000 -114.500 25 hurdat_epa main 764 O________O____ hurdat_epa EP161975 17.5000 -114.500 ET 25 -4 17.5000 -114.500 25 4 296

About IBTrACS Database

This database is a web-friendly format of International Best Track Archive for Climate Stewardship (IBTrACS), a global best track data archive curated by NOAA dating back to 1842.

Updated: 2021-11-26